Robinson, Illinois
Current Conditions -  °F | °C
As of 12:35 PM on Saturday 20 Dec 2014 (Local Time) from KRSV Reporting Station
Overcast Overcast  
Wind Chill: 35°   Ceiling: 6500
Heat Index: 35°   Visibility: 10mi
Dew Point: 27°   Wind: 3mph
Humidity: 71%   Direction: 70°ENE
Pressure: 30.29"   Gusts: NA
Location:  39.01°N, 87.74°W
Report Text: KRSV 201835Z AUTO 07003KT 10SM OVC065 02/M03 A3029 RMK AO2 T00171030
Loading
Personal Weather Stations






























Interactive Weather Map New forecast layout! Learn more

10-Day Weather Forecast

Advertisements
Track Severe Weather on mobile